createdAt,value
2018-08-13T00:01:17.682Z,3.63
2018-08-13T00:03:45.331Z,2.73
2018-08-13T00:08:32.282Z,2.23
2018-08-13T00:10:59.986Z,2.80
2018-08-13T00:13:27.574Z,3.03
2018-08-13T00:15:55.068Z,4.13
2018-08-13T00:18:22.771Z,2.73
2018-08-13T00:20:50.354Z,4.10
2018-08-13T00:23:18.024Z,2.63
2018-08-13T00:25:45.620Z,2.27
2018-08-13T00:28:13.268Z,4.13
2018-08-13T00:30:40.961Z,3.13
2018-08-13T00:33:09.911Z,2.43
2018-08-13T00:35:37.555Z,2.67
2018-08-13T00:38:05.372Z,2.50
2018-08-13T00:40:32.946Z,3.07
2018-08-13T00:43:00.696Z,2.60
2018-08-13T00:45:28.425Z,1.80
2018-08-13T00:47:56.111Z,3.40
2018-08-13T00:50:23.775Z,4.83
2018-08-13T00:52:51.452Z,2.00
2018-08-13T00:55:19.175Z,2.93
2018-08-13T00:57:46.649Z,2.10
2018-08-13T01:00:18.590Z,2.27
2018-08-13T01:02:46.754Z,3.50
2018-08-13T01:05:15.604Z,4.47
2018-08-13T01:07:43.492Z,3.87
2018-08-13T01:10:14.617Z,2.73
2018-08-13T01:12:42.712Z,4.10
2018-08-13T01:15:12.064Z,4.07
2018-08-13T01:17:41.231Z,2.30
2018-08-13T01:20:10.638Z,2.77
2018-08-13T01:22:38.361Z,3.23
2018-08-13T01:25:07.253Z,4.57
2018-08-13T01:27:34.762Z,2.73
2018-08-13T01:30:02.516Z,2.93
2018-08-13T01:32:30.656Z,2.90
2018-08-13T01:34:58.525Z,2.43
2018-08-13T01:37:27.060Z,5.17
2018-08-13T01:39:55.191Z,3.53
2018-08-13T01:42:23.625Z,2.23
2018-08-13T01:44:51.302Z,2.23
2018-08-13T01:47:19.026Z,2.20
2018-08-13T01:49:46.865Z,1.80
2018-08-13T01:52:14.845Z,2.30
2018-08-13T01:54:42.420Z,2.30
2018-08-13T01:57:10.047Z,2.53
2018-08-13T01:59:37.891Z,2.00
2018-08-13T02:02:05.626Z,2.07
2018-08-13T02:04:33.280Z,4.67
2018-08-13T02:07:01.018Z,3.50
2018-08-13T02:09:32.520Z,2.20
2018-08-13T02:12:00.696Z,4.10
2018-08-13T02:14:28.431Z,2.63
2018-08-13T02:16:56.476Z,3.67
2018-08-13T02:19:24.190Z,2.70
2018-08-13T02:21:51.831Z,6.43
2018-08-13T02:24:19.508Z,2.40
2018-08-13T02:26:47.271Z,3.80
2018-08-13T02:29:14.931Z,2.40
2018-08-13T02:31:42.592Z,5.77
2018-08-13T02:34:10.214Z,4.60
2018-08-13T02:36:37.815Z,3.43
2018-08-13T02:39:07.450Z,3.40
2018-08-13T02:41:34.936Z,2.43
2018-08-13T02:44:03.586Z,3.70
2018-08-13T02:46:31.495Z,4.07
2018-08-13T02:48:59.106Z,5.23
2018-08-13T02:51:26.746Z,2.33
2018-08-13T02:53:54.421Z,2.90
2018-08-13T02:56:22.046Z,2.50
2018-08-13T02:58:49.668Z,4.40
2018-08-13T03:01:17.286Z,3.60
2018-08-13T03:03:44.896Z,2.10
2018-08-13T03:06:12.352Z,3.37
2018-08-13T03:08:40.027Z,6.27
2018-08-13T03:11:07.731Z,4.60
2018-08-13T03:13:35.342Z,4.07
2018-08-13T03:16:03.096Z,4.03
2018-08-13T03:18:30.607Z,3.70
2018-08-13T03:20:58.299Z,3.90
2018-08-13T03:23:25.916Z,3.10
2018-08-13T03:25:53.596Z,4.27
2018-08-13T03:28:21.276Z,4.20
2018-08-13T03:30:48.914Z,4.80
2018-08-13T03:33:16.546Z,2.57
2018-08-13T03:35:44.198Z,2.87
2018-08-13T03:38:11.825Z,3.73
2018-08-13T03:40:39.417Z,4.30
2018-08-13T03:43:07.060Z,3.80
2018-08-13T03:45:34.751Z,3.10
2018-08-13T03:48:02.506Z,3.13
2018-08-13T03:50:30.171Z,3.23
2018-08-13T03:52:57.797Z,4.10
2018-08-13T03:55:25.412Z,2.90
2018-08-13T03:57:53.027Z,3.33
2018-08-13T04:00:20.652Z,3.73
2018-08-13T04:02:48.352Z,2.70
2018-08-13T04:05:15.831Z,3.70
2018-08-13T04:07:43.612Z,3.70
2018-08-13T04:10:12.128Z,3.70
2018-08-13T04:12:42.877Z,2.47
2018-08-13T04:15:12.199Z,2.70
2018-08-13T04:17:40.011Z,3.63
2018-08-13T04:20:09.296Z,2.97
2018-08-13T04:22:36.960Z,3.27
2018-08-13T04:25:05.833Z,4.07
2018-08-13T04:27:33.541Z,4.77
2018-08-13T04:30:01.258Z,3.90
2018-08-13T04:32:28.883Z,4.03
2018-08-13T04:34:56.590Z,5.73
2018-08-13T04:37:24.208Z,4.57
2018-08-13T04:39:51.691Z,5.27
2018-08-13T04:42:19.332Z,4.47
2018-08-13T04:44:46.956Z,4.50
2018-08-13T04:47:14.602Z,4.67
2018-08-13T04:49:42.221Z,3.63
2018-08-13T04:52:09.973Z,4.07
2018-08-13T05:07:37.107Z,5.20
2018-08-13T05:10:05.899Z,3.63
2018-08-13T05:12:33.529Z,3.57
2018-08-13T05:15:01.217Z,3.70
2018-08-13T05:17:28.827Z,2.77
2018-08-13T05:19:56.443Z,3.37
2018-08-13T05:22:24.044Z,4.47
2018-08-13T05:24:51.578Z,4.07
2018-08-13T05:27:19.228Z,2.77
2018-08-13T05:29:46.857Z,2.80
2018-08-13T05:32:14.507Z,2.63
2018-08-13T05:34:42.115Z,3.60
2018-08-13T05:37:09.654Z,3.33
2018-08-13T05:39:37.224Z,2.73
2018-08-13T05:42:04.873Z,4.20
2018-08-13T05:44:32.521Z,3.73
2018-08-13T05:47:00.188Z,2.40
2018-08-13T05:49:27.848Z,2.33
2018-08-13T05:51:55.497Z,3.93
2018-08-13T05:54:23.124Z,2.57
2018-08-13T05:56:50.768Z,2.30
2018-08-13T05:59:18.417Z,2.50
2018-08-13T06:01:46.066Z,1.87
2018-08-13T06:04:13.728Z,2.20
2018-08-13T06:06:41.406Z,3.60
2018-08-13T06:09:10.861Z,2.70
2018-08-13T06:11:38.597Z,2.27
2018-08-13T06:14:06.602Z,3.40
2018-08-13T06:16:34.228Z,2.00
2018-08-13T06:19:01.827Z,2.80
2018-08-13T06:21:29.449Z,1.70
2018-08-13T06:23:57.067Z,1.47
2018-08-13T06:26:24.808Z,2.33
2018-08-13T06:28:52.451Z,1.90
2018-08-13T06:31:20.148Z,4.83
2018-08-13T06:33:47.854Z,2.00
2018-08-13T06:36:15.447Z,2.73
2018-08-13T06:38:43.139Z,2.30
2018-08-13T06:41:10.869Z,2.67
2018-08-13T06:43:38.523Z,1.93
2018-08-13T06:46:06.218Z,4.23
2018-08-13T06:48:33.976Z,1.90
2018-08-13T06:51:01.734Z,1.50
2018-08-13T06:53:29.373Z,3.43
2018-08-13T06:55:57.057Z,3.47
2018-08-13T06:58:24.682Z,2.30
2018-08-13T07:00:52.462Z,3.77
2018-08-13T07:03:20.138Z,2.73
2018-08-13T07:05:47.825Z,2.20
2018-08-13T07:08:15.503Z,3.30
2018-08-13T07:10:43.214Z,2.77
2018-08-13T07:13:10.865Z,3.07
2018-08-13T07:15:38.584Z,3.73
2018-08-13T07:18:06.278Z,2.80
2018-08-13T07:20:34.023Z,2.27
2018-08-13T07:23:01.780Z,3.10
2018-08-13T07:25:29.487Z,3.60
2018-08-13T07:27:57.201Z,3.40
2018-08-13T07:30:24.872Z,5.23
2018-08-13T07:32:52.608Z,5.17
2018-08-13T07:35:20.343Z,5.57
2018-08-13T07:37:48.088Z,3.83
2018-08-13T07:40:16.940Z,6.10
2018-08-13T07:42:45.026Z,4.37
2018-08-13T07:45:12.761Z,4.73
2018-08-13T07:47:40.582Z,4.93
2018-08-13T07:50:10.560Z,3.17
2018-08-13T07:52:38.389Z,3.07
2018-08-13T07:55:06.419Z,3.50
2018-08-13T07:57:34.259Z,4.70
2018-08-13T08:00:02.074Z,3.00
2018-08-13T08:02:29.792Z,4.00
2018-08-13T08:04:57.564Z,3.67
2018-08-13T08:07:25.360Z,3.33
2018-08-13T08:09:53.050Z,3.27
2018-08-13T08:12:20.788Z,4.00
2018-08-13T08:14:49.454Z,4.87
2018-08-13T08:17:18.213Z,6.43
2018-08-13T08:19:46.033Z,5.47
2018-08-13T08:22:13.863Z,6.67
2018-08-13T08:24:41.438Z,4.57
2018-08-13T08:27:09.410Z,2.80
2018-08-13T08:29:38.945Z,4.60
2018-08-13T08:32:07.159Z,4.63
2018-08-13T08:34:35.151Z,4.93
2018-08-13T08:37:02.933Z,4.93
2018-08-13T08:39:58.967Z,5.73
2018-08-13T08:42:42.647Z,4.27
2018-08-13T08:45:39.901Z,5.60
2018-08-13T08:48:32.980Z,4.13
2018-08-13T08:51:27.629Z,4.97
2018-08-13T08:54:19.193Z,4.97
2018-08-13T08:57:11.825Z,5.60
2018-08-13T09:00:05.684Z,5.37
2018-08-13T09:02:58.382Z,4.50
2018-08-13T09:05:26.999Z,5.53
2018-08-13T09:08:12.313Z,4.37
2018-08-13T09:10:43.850Z,5.40
2018-08-13T09:13:13.828Z,5.73
2018-08-13T09:15:41.817Z,4.40
2018-08-13T09:18:14.994Z,4.53
2018-08-13T09:20:54.000Z,5.73
2018-08-13T09:23:33.083Z,3.80
2018-08-13T09:26:12.123Z,4.13
2018-08-13T09:28:51.062Z,4.47
2018-08-13T09:31:28.983Z,4.27
2018-08-13T09:34:41.934Z,7.97
2018-08-13T09:37:09.899Z,6.37
2018-08-13T09:39:37.601Z,4.87
2018-08-13T09:42:05.664Z,5.17
2018-08-13T09:44:33.341Z,6.93
2018-08-13T09:47:01.227Z,6.73
2018-08-13T09:49:29.082Z,6.23
2018-08-13T09:51:56.779Z,5.47
2018-08-13T09:54:24.483Z,7.67
2018-08-13T09:56:52.204Z,4.93
2018-08-13T09:59:19.965Z,5.00
2018-08-13T10:01:47.700Z,6.20
2018-08-13T10:04:24.756Z,6.67
2018-08-13T10:06:52.430Z,6.43
2018-08-13T10:09:20.166Z,5.23
2018-08-13T10:11:47.782Z,7.83
2018-08-13T10:14:15.545Z,8.80
2018-08-13T10:16:43.118Z,5.87
2018-08-13T10:19:10.837Z,7.50
2018-08-13T10:21:38.541Z,4.23
2018-08-13T10:24:06.293Z,4.97
2018-08-13T10:26:34.054Z,6.30
2018-08-13T10:29:01.768Z,5.27
2018-08-13T10:31:29.512Z,4.20
2018-08-13T10:33:57.503Z,5.57
2018-08-13T10:36:25.254Z,6.07
2018-08-13T10:38:52.984Z,4.00
2018-08-13T10:41:20.740Z,3.87
2018-08-13T10:43:48.399Z,5.93
2018-08-13T10:46:16.108Z,4.93
2018-08-13T10:48:43.786Z,4.30
2018-08-13T10:51:11.569Z,3.80
2018-08-13T10:53:39.264Z,3.20
2018-08-13T10:56:07.106Z,3.07
2018-08-13T10:58:34.824Z,3.17
2018-08-13T11:01:02.590Z,4.83
2018-08-13T11:03:30.474Z,6.07
2018-08-13T11:05:58.261Z,3.87
2018-08-13T11:08:25.827Z,4.03
2018-08-13T11:10:53.515Z,4.30
2018-08-13T11:13:21.231Z,4.27
2018-08-13T11:15:48.978Z,3.80
2018-08-13T11:18:16.674Z,6.37
2018-08-13T11:20:44.346Z,4.97
2018-08-13T11:23:12.100Z,4.43
2018-08-13T11:25:39.888Z,4.00
2018-08-13T11:28:07.524Z,3.47
2018-08-13T11:30:35.175Z,3.93
2018-08-13T11:33:02.848Z,3.93
2018-08-13T11:35:30.519Z,4.33
2018-08-13T11:37:58.275Z,6.93
2018-08-13T11:40:25.944Z,7.43
2018-08-13T11:42:53.618Z,3.60
2018-08-13T11:45:21.153Z,4.37
2018-08-13T11:47:48.875Z,6.53
2018-08-13T11:50:18.718Z,4.67
2018-08-13T11:52:47.578Z,7.07
2018-08-13T11:55:15.750Z,6.70
2018-08-13T11:57:43.500Z,4.40
2018-08-13T12:00:12.059Z,5.33
2018-08-13T12:02:39.886Z,4.43
2018-08-13T12:05:10.141Z,4.27
2018-08-13T12:07:37.928Z,3.50
2018-08-13T12:10:05.893Z,3.47
2018-08-13T12:12:33.606Z,4.20
2018-08-13T12:15:01.862Z,3.30
2018-08-13T12:17:29.965Z,3.73
2018-08-13T12:19:57.661Z,3.87
2018-08-13T12:22:25.323Z,3.07
2018-08-13T12:24:53.006Z,3.63
2018-08-13T12:27:20.666Z,2.97
2018-08-13T12:29:48.405Z,2.27
2018-08-13T12:32:16.360Z,2.23
2018-08-13T12:34:44.063Z,2.87
2018-08-13T12:37:12.691Z,3.10
2018-08-13T12:39:40.449Z,1.87
2018-08-13T12:42:09.139Z,2.70
2018-08-13T12:44:37.359Z,3.87
2018-08-13T12:47:06.025Z,2.67
2018-08-13T12:49:33.729Z,4.07
2018-08-13T12:52:01.551Z,2.10
2018-08-13T12:54:29.350Z,2.50
2018-08-13T12:56:57.159Z,2.60
2018-08-13T12:59:24.850Z,3.50
2018-08-13T13:01:52.618Z,2.23
2018-08-13T13:04:20.338Z,2.73
2018-08-13T13:06:48.136Z,2.67
2018-08-13T13:09:15.701Z,2.53
2018-08-13T13:11:43.425Z,3.17
2018-08-13T13:14:11.248Z,6.00
2018-08-13T13:16:38.955Z,2.17
2018-08-13T13:19:07.066Z,1.90
2018-08-13T13:21:34.759Z,2.10
2018-08-13T13:24:03.344Z,2.33
2018-08-13T13:26:30.971Z,2.20
2018-08-13T13:28:58.740Z,2.47
2018-08-13T13:31:26.456Z,2.40
2018-08-13T13:33:54.208Z,3.13
2018-08-13T13:36:21.865Z,1.70
2018-08-13T13:38:49.450Z,1.93
2018-08-13T13:41:17.204Z,1.70
2018-08-13T13:43:44.934Z,2.77
2018-08-13T13:46:12.717Z,1.40
2018-08-13T13:48:40.410Z,2.90
2018-08-13T13:51:08.235Z,1.50
2018-08-13T13:53:35.923Z,1.57
2018-08-13T13:56:03.749Z,2.43
2018-08-13T13:58:31.435Z,2.80
2018-08-13T14:01:00.151Z,2.70
2018-08-13T14:03:27.880Z,3.20
2018-08-13T14:05:55.650Z,2.03
2018-08-13T14:08:23.364Z,1.40
2018-08-13T14:10:55.235Z,1.60
2018-08-13T14:13:25.745Z,2.57
2018-08-13T14:15:53.505Z,1.40
2018-08-13T14:18:21.316Z,1.43
2018-08-13T14:20:49.056Z,1.70
2018-08-13T14:23:16.835Z,3.00
2018-08-13T14:25:44.652Z,1.73
2018-08-13T14:28:12.909Z,2.73
2018-08-13T14:30:40.535Z,2.50
2018-08-13T14:33:08.962Z,1.40
2018-08-13T14:35:36.744Z,1.87
2018-08-13T14:38:04.547Z,1.80
2018-08-13T14:40:32.327Z,1.80
2018-08-13T14:43:00.042Z,2.10
2018-08-13T14:45:27.579Z,1.83
2018-08-13T14:47:55.176Z,1.90
2018-08-13T14:50:22.774Z,2.03
2018-08-13T14:52:50.476Z,3.07
2018-08-13T14:55:18.725Z,2.43
2018-08-13T14:57:46.520Z,1.77
2018-08-13T15:00:20.891Z,2.00
2018-08-13T15:02:48.714Z,2.70
2018-08-13T15:05:16.540Z,2.23
2018-08-13T15:07:45.280Z,3.80
2018-08-13T15:10:14.808Z,1.90
2018-08-13T15:12:43.905Z,4.70
2018-08-13T15:15:12.271Z,3.13
2018-08-13T15:17:40.499Z,2.60
2018-08-13T15:20:11.364Z,1.87
2018-08-13T15:22:40.080Z,2.00
2018-08-13T15:25:07.815Z,2.27
2018-08-13T15:27:36.797Z,2.03
2018-08-13T15:30:07.139Z,3.17
2018-08-13T15:32:34.889Z,2.43
2018-08-13T15:35:02.667Z,1.83
2018-08-13T15:37:30.363Z,2.20
2018-08-13T15:39:58.057Z,1.90
2018-08-13T15:42:25.851Z,1.83
2018-08-13T15:44:53.545Z,2.37
2018-08-13T15:47:21.245Z,2.97
2018-08-13T15:49:48.916Z,2.80
2018-08-13T15:52:16.504Z,3.17
2018-08-13T15:54:44.209Z,4.03
2018-08-13T15:57:12.135Z,4.90
2018-08-13T15:59:39.890Z,12.90
2018-08-13T16:02:07.437Z,8.50
2018-08-13T16:04:35.199Z,5.63
2018-08-13T16:07:05.675Z,5.47
2018-08-13T16:09:33.428Z,5.30
2018-08-13T16:12:01.180Z,9.70
2018-08-13T16:14:29.211Z,8.63
2018-08-13T16:16:56.822Z,7.20
2018-08-13T16:19:24.456Z,7.87
2018-08-13T16:21:52.226Z,5.90
2018-08-13T16:24:19.931Z,5.47
2018-08-13T16:26:47.590Z,5.10
2018-08-13T16:29:15.349Z,7.63
2018-08-13T16:31:43.060Z,5.63
2018-08-13T16:34:10.867Z,5.37
2018-08-13T16:36:38.466Z,4.63
2018-08-13T16:39:07.329Z,4.80
2018-08-13T16:41:35.360Z,6.93
2018-08-13T16:44:03.176Z,6.17
2018-08-13T16:46:31.588Z,4.43
2018-08-13T16:48:59.336Z,3.53
2018-08-13T16:51:27.086Z,1.53
2018-08-13T16:53:54.824Z,2.23
2018-08-13T16:56:22.939Z,2.17
2018-08-13T16:58:50.721Z,1.33
2018-08-13T17:01:18.484Z,1.40
2018-08-13T17:03:46.205Z,2.37
2018-08-13T17:06:14.420Z,2.03
2018-08-13T17:08:42.160Z,0.87
2018-08-13T17:11:09.864Z,2.17
2018-08-13T17:13:37.578Z,2.50
2018-08-13T17:16:06.612Z,1.67
2018-08-13T17:18:34.307Z,1.97
2018-08-13T17:34:01.537Z,2.37
2018-08-13T17:36:29.274Z,2.50
2018-08-13T17:38:56.972Z,2.43
2018-08-13T17:41:24.735Z,4.10
2018-08-13T17:43:52.446Z,1.43
2018-08-13T17:46:20.100Z,1.87
2018-08-13T17:48:47.865Z,1.70
2018-08-13T17:51:15.448Z,2.07
2018-08-13T17:53:43.016Z,2.97
2018-08-13T17:56:10.781Z,2.17
2018-08-13T17:58:38.491Z,2.07
2018-08-13T18:01:06.472Z,2.23
2018-08-13T18:03:34.067Z,2.63
2018-08-13T18:06:01.827Z,1.87
2018-08-13T18:08:29.528Z,1.77
2018-08-13T18:10:57.219Z,2.77
2018-08-13T18:13:24.877Z,1.60
2018-08-13T18:15:52.650Z,2.80
2018-08-13T18:18:20.336Z,2.77
2018-08-13T18:20:47.985Z,1.97
2018-08-13T18:23:15.631Z,2.23
2018-08-13T18:38:37.797Z,2.00
2018-08-13T18:41:05.497Z,4.07
2018-08-13T18:43:33.292Z,6.37
2018-08-13T18:46:00.991Z,25.10
2018-08-13T18:48:28.938Z,22.33
2018-08-13T18:50:56.686Z,5.97
2018-08-13T18:53:24.417Z,4.17
2018-08-13T18:55:52.182Z,6.50
2018-08-13T18:58:19.732Z,4.03
2018-08-13T19:00:50.890Z,3.77
2018-08-13T19:03:19.300Z,3.70
2018-08-13T19:05:47.549Z,3.20
2018-08-13T19:08:16.633Z,3.60
2018-08-13T19:10:44.637Z,3.10
2018-08-13T19:13:12.971Z,4.13
2018-08-13T19:15:40.674Z,3.73
2018-08-13T19:18:09.049Z,2.50
2018-08-13T19:20:38.466Z,3.10
2018-08-13T19:23:06.868Z,2.43
2018-08-13T19:25:35.529Z,4.13
2018-08-13T19:28:03.170Z,2.37
2018-08-13T19:30:31.020Z,2.80
2018-08-13T19:32:59.641Z,4.80
2018-08-13T19:35:27.860Z,5.30
2018-08-13T19:37:55.723Z,5.00
2018-08-13T19:40:25.368Z,5.83
2018-08-13T19:42:53.696Z,2.40
2018-08-13T19:45:23.319Z,4.30
2018-08-13T19:47:52.727Z,4.67
2018-08-13T19:50:20.926Z,2.50
2018-08-13T19:52:50.027Z,3.33
2018-08-13T19:55:18.943Z,4.00
2018-08-13T19:57:47.095Z,15.53
2018-08-13T20:00:18.642Z,13.13
2018-08-13T20:02:49.983Z,141.77
2018-08-13T20:05:19.418Z,188.17
2018-08-13T20:07:47.846Z,96.70
2018-08-13T20:10:16.899Z,80.73
2018-08-13T20:12:45.890Z,46.77
2018-08-13T20:15:14.616Z,25.87
2018-08-13T20:17:44.116Z,14.33
2018-08-13T20:20:13.092Z,13.33
2018-08-13T20:22:42.577Z,13.33
2018-08-13T20:25:12.943Z,11.80
2018-08-13T20:27:40.691Z,9.80
2018-08-13T20:30:12.807Z,7.90
2018-08-13T20:32:41.451Z,7.00
2018-08-13T20:35:09.266Z,7.10
2018-08-13T20:37:37.400Z,6.23
2018-08-13T20:40:09.012Z,6.00
2018-08-13T20:42:37.589Z,6.83
2018-08-13T20:45:09.353Z,18.57
2018-08-13T20:47:37.037Z,21.20
2018-08-13T20:50:08.915Z,9.30
2018-08-13T20:52:37.108Z,12.93
2018-08-13T20:55:08.941Z,8.27
2018-08-13T20:57:37.548Z,8.47
2018-08-13T21:00:09.470Z,6.70
2018-08-13T21:02:39.182Z,6.27
2018-08-13T21:05:07.827Z,15.27
2018-08-13T21:07:36.525Z,6.53
2018-08-13T21:10:06.051Z,3.00
2018-08-13T21:12:34.296Z,2.87
2018-08-13T21:15:05.226Z,2.57
2018-08-13T21:17:34.100Z,3.93
2018-08-13T21:20:01.831Z,5.27
2018-08-13T21:22:30.475Z,3.70
2018-08-13T21:24:58.747Z,6.10
2018-08-13T21:27:26.463Z,10.63
2018-08-13T21:29:54.670Z,7.30
2018-08-13T21:32:22.492Z,8.17
2018-08-13T21:34:50.248Z,3.00
2018-08-13T21:37:19.057Z,3.50
2018-08-13T21:39:47.290Z,3.80
2018-08-13T21:42:15.687Z,3.40
2018-08-13T21:44:43.492Z,3.43
2018-08-13T21:47:12.151Z,3.17
2018-08-13T21:49:40.823Z,3.93
2018-08-13T21:52:09.104Z,3.30
2018-08-13T21:54:37.303Z,3.27
2018-08-13T21:57:05.534Z,4.57
2018-08-13T21:59:33.221Z,3.23
2018-08-13T22:02:00.943Z,3.20
2018-08-13T22:04:28.566Z,3.13
2018-08-13T22:06:56.218Z,2.30
2018-08-13T22:09:23.959Z,3.23
2018-08-13T22:11:51.578Z,2.90
2018-08-13T22:14:19.259Z,3.10
2018-08-13T22:16:46.922Z,2.77
2018-08-13T22:19:14.626Z,2.97
2018-08-13T22:21:42.317Z,2.30
2018-08-13T22:24:21.281Z,4.10
2018-08-13T22:26:48.926Z,3.47
2018-08-13T22:29:16.591Z,3.17
2018-08-13T22:31:44.277Z,2.37
2018-08-13T22:34:11.978Z,1.83
2018-08-13T22:36:39.545Z,3.07
2018-08-13T22:39:07.536Z,2.50
2018-08-13T22:41:35.266Z,2.70
2018-08-13T22:44:02.945Z,2.77
2018-08-13T22:46:30.627Z,2.20
2018-08-13T22:48:58.253Z,3.33
2018-08-13T22:51:25.931Z,2.67
2018-08-13T22:53:53.612Z,3.20
2018-08-13T22:56:21.281Z,7.33
2018-08-13T22:58:48.975Z,2.60
2018-08-13T23:01:16.647Z,6.70
2018-08-13T23:03:44.357Z,4.23
2018-08-13T23:06:12.033Z,3.13
2018-08-13T23:08:39.774Z,3.63
2018-08-13T23:11:07.388Z,1.97
2018-08-13T23:13:34.935Z,1.53
2018-08-13T23:16:02.641Z,2.03
2018-08-13T23:18:30.330Z,2.73
2018-08-13T23:20:57.991Z,2.77
2018-08-13T23:23:25.616Z,4.07
2018-08-13T23:25:53.345Z,4.03
2018-08-13T23:28:20.960Z,3.03
2018-08-13T23:30:48.480Z,2.83
2018-08-13T23:33:16.226Z,3.57
2018-08-13T23:35:44.543Z,2.37
2018-08-13T23:38:12.166Z,2.30
2018-08-13T23:40:39.858Z,1.00
2018-08-13T23:43:07.523Z,1.43
2018-08-13T23:45:35.187Z,2.80
2018-08-13T23:48:02.858Z,2.40
2018-08-13T23:50:30.480Z,1.40
2018-08-13T23:52:59.493Z,1.67
2018-08-13T23:55:31.082Z,2.50
2018-08-13T23:57:59.165Z,2.03
